createdAt,value
2022-08-23T00:05:08.966Z,23.17
2022-08-23T00:10:14.400Z,23.21
2022-08-23T00:15:20.486Z,23.21
2022-08-23T00:20:21.850Z,23.15
2022-08-23T00:25:23.498Z,23.08
2022-08-23T00:30:25.039Z,23.00
2022-08-23T00:35:27.496Z,22.92
2022-08-23T00:40:29.041Z,22.95
2022-08-23T00:46:00.530Z,22.94
2022-08-23T00:51:12.818Z,22.91
2022-08-23T00:56:17.749Z,22.89
2022-08-23T01:01:19.464Z,22.91
2022-08-23T01:06:53.258Z,22.89
2022-08-23T01:12:11.395Z,22.85
2022-08-23T01:17:19.549Z,22.80
2022-08-23T01:22:31.302Z,22.76
2022-08-23T01:27:33.210Z,22.75
2022-08-23T01:32:41.053Z,22.66
2022-08-23T01:37:43.162Z,22.52
2022-08-23T01:42:44.582Z,22.50
2022-08-23T01:47:45.970Z,22.46
2022-08-23T01:52:47.581Z,22.45
2022-08-23T01:57:52.178Z,22.38
2022-08-23T02:02:53.554Z,22.30
2022-08-23T02:07:55.401Z,22.29
2022-08-23T02:12:56.798Z,22.31
2022-08-23T02:18:00.118Z,22.34
2022-08-23T02:23:01.813Z,22.20
2022-08-23T02:28:04.674Z,22.13
2022-08-23T02:33:06.251Z,22.07
2022-08-23T02:38:11.490Z,22.11
2022-08-23T02:43:12.835Z,22.03
2022-08-23T02:48:14.233Z,22.05
2022-08-23T02:53:17.177Z,21.94
2022-08-23T02:58:18.518Z,21.84
2022-08-23T03:03:22.618Z,21.78
2022-08-23T03:08:25.141Z,21.84
2022-08-23T03:13:26.542Z,21.84
2022-08-23T03:18:28.007Z,21.85
2022-08-23T03:23:29.514Z,21.71
2022-08-23T03:28:32.893Z,21.70
2022-08-23T03:33:34.675Z,21.66
2022-08-23T03:38:36.896Z,21.53
2022-08-23T03:43:38.764Z,21.61
2022-08-23T03:48:41.356Z,21.60
2022-08-23T03:53:42.766Z,21.42
2022-08-23T03:58:44.140Z,21.45
2022-08-23T04:03:45.743Z,21.37
2022-08-23T04:08:47.677Z,21.33
2022-08-23T04:13:49.308Z,21.30
2022-08-23T04:18:50.702Z,21.27
2022-08-23T04:23:52.692Z,21.24
2022-08-23T04:28:54.514Z,21.25
2022-08-23T04:33:56.616Z,21.27
2022-08-23T04:38:58.473Z,21.29
2022-08-23T04:44:00.262Z,21.21
2022-08-23T04:49:03.471Z,21.20
2022-08-23T04:54:05.206Z,21.16
2022-08-23T04:59:07.062Z,21.14
2022-08-23T05:04:08.985Z,21.09
2022-08-23T05:09:10.590Z,20.96
2022-08-23T05:14:11.953Z,20.89
2022-08-23T05:19:13.377Z,20.88
2022-08-23T05:24:14.785Z,20.87
2022-08-23T05:29:16.281Z,20.89
2022-08-23T05:34:22.651Z,20.85
2022-08-23T05:39:32.869Z,20.78
2022-08-23T05:44:38.810Z,20.88
2022-08-23T05:49:40.631Z,20.86
2022-08-23T05:54:42.127Z,20.86
2022-08-23T05:59:43.551Z,20.91
2022-08-23T06:04:44.960Z,21.04
2022-08-23T06:09:46.613Z,21.13
2022-08-23T06:14:48.195Z,21.33
2022-08-23T06:19:49.915Z,21.49
2022-08-23T06:24:51.632Z,21.64
2022-08-23T06:29:53.207Z,21.81
2022-08-23T06:35:19.419Z,21.94
2022-08-23T06:40:17.896Z,22.11
2022-08-23T06:45:19.451Z,22.22
2022-08-23T06:50:32.411Z,22.32
2022-08-23T06:55:34.046Z,22.45
2022-08-23T07:00:35.802Z,22.51
2022-08-23T07:05:37.151Z,22.66
2022-08-23T07:10:38.491Z,22.88
2022-08-23T07:15:39.875Z,22.99
2022-08-23T07:20:41.442Z,23.14
2022-08-23T07:25:43.679Z,23.24
2022-08-23T07:30:45.625Z,23.63
2022-08-23T07:35:51.286Z,23.85
2022-08-23T07:40:54.174Z,23.91
2022-08-23T07:45:55.667Z,24.00
2022-08-23T07:51:02.195Z,24.03
2022-08-23T07:56:09.354Z,24.05
2022-08-23T08:01:22.015Z,24.10
2022-08-23T08:06:27.614Z,24.16
2022-08-23T08:11:34.949Z,24.42
2022-08-23T08:16:46.099Z,24.97
2022-08-23T08:21:48.579Z,25.23
2022-08-23T08:26:49.949Z,25.26
2022-08-23T08:31:54.140Z,25.53
2022-08-23T08:36:58.698Z,25.90
2022-08-23T08:42:12.211Z,25.97
2022-08-23T08:47:19.019Z,26.26
2022-08-23T08:52:27.805Z,26.77
2022-08-23T08:57:41.221Z,27.11
2022-08-23T09:02:43.316Z,27.11
2022-08-23T09:08:06.349Z,27.63
2022-08-23T09:13:19.839Z,27.74
2022-08-23T09:18:23.523Z,28.10
2022-08-23T09:23:34.292Z,28.36
2022-08-23T09:28:36.941Z,28.38
2022-08-23T09:33:43.897Z,28.52
2022-08-23T09:39:30.543Z,28.64
2022-08-23T09:44:42.048Z,29.01
2022-08-23T09:49:47.623Z,29.32
2022-08-23T09:55:02.905Z,30.00
2022-08-23T10:00:17.372Z,30.92
2022-08-23T10:05:29.447Z,30.93
2022-08-23T10:10:33.794Z,31.17
2022-08-23T10:16:09.468Z,31.75
2022-08-23T10:21:24.000Z,32.17
2022-08-23T10:26:33.729Z,35.61
2022-08-23T10:31:47.583Z,38.93
2022-08-23T10:37:08.870Z,39.58
2022-08-23T10:42:54.667Z,37.32
2022-08-23T10:48:02.447Z,36.95
2022-08-23T10:53:13.468Z,39.35
2022-08-23T10:58:21.160Z,42.92
2022-08-23T11:03:57.812Z,44.64
2022-08-23T11:09:01.176Z,45.47
2022-08-23T11:14:04.190Z,46.26
2022-08-23T11:19:12.846Z,46.83
2022-08-23T11:24:18.285Z,46.85
2022-08-23T11:29:22.520Z,47.20
2022-08-23T11:34:50.298Z,47.10
2022-08-23T11:40:00.516Z,47.65
2022-08-23T11:45:03.431Z,48.16
2022-08-23T11:50:25.138Z,48.20
2022-08-23T11:55:47.977Z,47.61
2022-08-23T12:01:09.931Z,47.36
2022-08-23T12:06:51.516Z,44.12
2022-08-23T12:11:56.066Z,40.94
2022-08-23T12:17:29.675Z,39.88
2022-08-23T12:22:51.993Z,38.87
2022-08-23T12:28:00.192Z,38.76
2022-08-23T12:33:16.877Z,38.95
2022-08-23T12:38:24.307Z,38.45
2022-08-23T12:43:32.257Z,38.75
2022-08-23T12:48:46.111Z,38.44
2022-08-23T12:53:47.556Z,38.08
2022-08-23T12:58:54.632Z,37.43
2022-08-23T13:04:04.767Z,37.28
2022-08-23T13:09:22.481Z,37.05
2022-08-23T13:14:41.834Z,36.92
2022-08-23T13:19:43.838Z,36.70
2022-08-23T13:25:24.583Z,36.61
2022-08-23T13:30:22.868Z,36.35
2022-08-23T13:36:13.184Z,36.12
2022-08-23T13:41:38.682Z,36.09
2022-08-23T13:46:46.219Z,35.83
2022-08-23T13:52:18.361Z,35.53
2022-08-23T13:57:22.276Z,34.96
2022-08-23T14:02:24.409Z,34.93
2022-08-23T14:07:25.931Z,34.59
2022-08-23T14:12:31.504Z,34.56
2022-08-23T14:17:38.554Z,34.38
2022-08-23T14:22:40.527Z,34.20
2022-08-23T14:27:44.587Z,33.95
2022-08-23T14:32:45.919Z,33.53
2022-08-23T14:38:04.641Z,33.21
2022-08-23T14:43:06.507Z,33.09
2022-08-23T14:48:07.825Z,32.94
2022-08-23T14:53:10.239Z,32.80
2022-08-23T14:58:11.681Z,32.72
2022-08-23T15:03:16.613Z,32.51
2022-08-23T15:08:18.912Z,32.28
2022-08-23T15:13:29.747Z,32.20
2022-08-23T15:18:36.642Z,32.13
2022-08-23T15:23:38.116Z,32.17
2022-08-23T15:28:40.230Z,32.07
2022-08-23T15:33:41.702Z,31.83
2022-08-23T15:38:45.334Z,31.85
2022-08-23T15:43:47.274Z,31.80
2022-08-23T15:48:54.695Z,31.77
2022-08-23T15:53:56.655Z,31.70
2022-08-23T15:58:59.588Z,31.67
2022-08-23T16:04:02.177Z,31.58
2022-08-23T16:09:05.402Z,31.42
2022-08-23T16:14:06.812Z,31.35
2022-08-23T16:19:09.005Z,31.27
2022-08-23T16:24:10.713Z,31.29
2022-08-23T16:29:17.095Z,31.12
2022-08-23T16:34:20.041Z,31.13
2022-08-23T16:39:21.430Z,31.10
2022-08-23T16:44:23.883Z,31.02
2022-08-23T16:49:25.300Z,30.96
2022-08-23T16:54:28.358Z,30.89
2022-08-23T16:59:29.860Z,30.91
2022-08-23T17:04:32.793Z,30.93
2022-08-23T17:09:34.226Z,30.82
2022-08-23T17:14:35.645Z,30.73
2022-08-23T17:19:39.050Z,30.70
2022-08-23T17:24:40.666Z,30.58
2022-08-23T17:29:42.171Z,30.47
2022-08-23T17:34:43.546Z,30.36
2022-08-23T17:39:45.379Z,30.23
2022-08-23T17:44:46.854Z,30.11
2022-08-23T17:49:49.325Z,29.96
2022-08-23T17:54:50.745Z,29.86
2022-08-23T17:59:53.140Z,29.76
2022-08-23T18:04:54.573Z,29.60
2022-08-23T18:09:56.887Z,29.45
2022-08-23T18:14:58.322Z,29.27
2022-08-23T18:20:00.375Z,29.21
2022-08-23T18:25:01.742Z,29.06
2022-08-23T18:30:04.596Z,28.95
2022-08-23T18:35:06.536Z,28.78
2022-08-23T18:40:10.131Z,28.67
2022-08-23T18:45:13.899Z,28.54
2022-08-23T18:50:16.387Z,28.43
2022-08-23T18:55:20.089Z,28.29
2022-08-23T19:00:21.622Z,28.14
2022-08-23T19:05:23.118Z,28.09
2022-08-23T19:10:25.062Z,27.96
2022-08-23T19:15:28.809Z,27.90
2022-08-23T19:20:30.663Z,27.78
2022-08-23T19:25:34.784Z,27.62
2022-08-23T19:30:37.238Z,27.51
2022-08-23T19:35:42.410Z,27.39
2022-08-23T19:40:43.985Z,27.39
2022-08-23T19:45:48.656Z,27.32
2022-08-23T19:50:50.506Z,27.19
2022-08-23T19:55:51.924Z,27.07
2022-08-23T20:00:54.417Z,27.06
2022-08-23T20:05:55.883Z,26.95
2022-08-23T20:10:57.255Z,26.84
2022-08-23T20:15:58.664Z,26.79
2022-08-23T20:21:00.578Z,26.71
2022-08-23T20:26:01.948Z,26.58
2022-08-23T20:31:28.264Z,26.46
2022-08-23T20:36:29.770Z,26.41
2022-08-23T20:41:35.067Z,26.32
2022-08-23T20:46:36.774Z,26.23
2022-08-23T20:51:39.206Z,26.19
2022-08-23T20:56:41.271Z,26.02
2022-08-23T21:01:42.743Z,25.97
2022-08-23T21:06:48.639Z,25.85
2022-08-23T21:11:51.192Z,25.82
2022-08-23T21:16:52.798Z,25.77
2022-08-23T21:21:54.326Z,25.69
2022-08-23T21:26:55.766Z,25.54
2022-08-23T21:31:57.719Z,25.52
2022-08-23T21:36:59.184Z,25.38
2022-08-23T21:42:00.619Z,25.32
2022-08-23T21:47:02.035Z,25.26
2022-08-23T21:52:04.535Z,25.16
2022-08-23T21:57:05.984Z,25.14
2022-08-23T22:02:07.386Z,25.02
2022-08-23T22:07:08.892Z,25.13
2022-08-23T22:12:10.267Z,25.13
2022-08-23T22:17:11.719Z,24.93
2022-08-23T22:22:15.023Z,24.87
2022-08-23T22:27:17.357Z,24.85
2022-08-23T22:32:22.853Z,24.78
2022-08-23T22:37:25.254Z,24.70
2022-08-23T22:42:26.757Z,24.67
2022-08-23T22:47:29.698Z,24.54
2022-08-23T22:52:31.190Z,24.48
2022-08-23T22:57:32.627Z,24.47
2022-08-23T23:02:34.003Z,24.43
2022-08-23T23:07:54.167Z,24.42
2022-08-23T23:12:55.815Z,24.31
2022-08-23T23:17:57.259Z,24.24
2022-08-23T23:22:58.778Z,24.28
2022-08-23T23:28:01.914Z,24.18
2022-08-23T23:33:04.649Z,24.20
2022-08-23T23:38:06.822Z,24.18
2022-08-23T23:43:11.223Z,24.13
2022-08-23T23:48:14.867Z,24.13
2022-08-23T23:53:16.409Z,24.07
2022-08-23T23:58:18.034Z,24.02
